Time,TemperatureF,DewpointF,PressureIn,WindDirection,WindDirectionDegrees,WindSpeedMPH,WindSpeedGustMPH,Humidity,HourlyPrecipIn,Conditions,Clouds,dailyrainin,SoftwareType,DateUTC
2013-01-06 00:11:00,45.1,45.1,30.07,ENE,78,0.0,1.0,100,0.00,,---,0.00,VWS V14.01,2013-01-06 08:11:00,
2013-01-06 00:21:00,44.9,44.9,30.07,ENE,78,0.0,0.0,100,0.00,,---,0.00,VWS V14.01,2013-01-06 08:21:00,
2013-01-06 00:27:00,44.8,44.8,30.07,East,79,0.0,0.0,100,0.00,,---,0.00,VWS V14.01,2013-01-06 08:27:00,
2013-01-06 00:41:00,44.7,44.7,30.07,East,79,0.0,0.0,100,0.00,,---,0.00,VWS V14.01,2013-01-06 08:41:00,
2013-01-06 00:51:00,44.7,44.7,30.07,East,79,0.0,0.0,100,0.00,,---,0.00,VWS V14.01,2013-01-06 08:51:00,
2013-01-06 00:57:00,44.6,44.6,30.07,East,79,0.0,0.0,100,0.00,,---,0.00,VWS V14.01,2013-01-06 08:57:00,
2013-01-06 01:11:00,44.5,44.5,30.07,ENE,78,0.0,0.0,100,0.00,,---,0.00,VWS V14.01,2013-01-06 09:11:00,
2013-01-06 01:21:00,44.5,44.5,30.08,East,79,0.0,0.0,100,0.00,,---,0.00,VWS V14.01,2013-01-06 09:21:00,
2013-01-06 01:27:00,44.5,44.5,30.08,East,79,0.0,0.0,100,0.00,,---,0.00,VWS V14.01,2013-01-06 09:27:00,
2013-01-06 01:41:00,44.4,44.4,30.08,ENE,78,0.0,0.0,100,0.00,,---,0.00,VWS V14.01,2013-01-06 09:41:00,
2013-01-06 01:51:00,44.3,44.3,30.09,East,79,0.0,0.0,100,0.00,,---,0.00,VWS V14.01,2013-01-06 09:51:00,
2013-01-06 01:58:00,44.3,44.3,30.10,ENE,78,0.0,0.0,100,0.00,,---,0.00,VWS V14.01,2013-01-06 09:58:00,
2013-01-06 02:11:00,44.2,44.2,30.11,ENE,78,0.0,0.0,100,0.01,,---,0.01,VWS V14.01,2013-01-06 10:11:00,
2013-01-06 02:21:00,44.2,44.2,30.11,ENE,78,0.0,0.0,100,0.01,,---,0.01,VWS V14.01,2013-01-06 10:21:00,
2013-01-06 02:28:00,44.2,44.2,30.10,ENE,78,0.0,0.0,100,0.02,,---,0.02,VWS V14.01,2013-01-06 10:28:00,
2013-01-06 02:41:00,44.0,44.0,30.11,ENE,78,0.0,0.0,100,0.02,,---,0.02,VWS V14.01,2013-01-06 10:41:00,
2013-01-06 02:51:00,43.9,43.9,30.11,ENE,78,0.0,0.0,100,0.02,,---,0.02,VWS V14.01,2013-01-06 10:51:00,
2013-01-06 02:58:00,43.9,43.9,30.11,ENE,78,0.0,0.0,100,0.02,,---,0.02,VWS V14.01,2013-01-06 10:58:00,
2013-01-06 03:11:00,43.8,43.8,30.11,ENE,78,0.0,0.0,100,0.02,,---,0.02,VWS V14.01,2013-01-06 11:11:00,
2013-01-06 03:21:00,43.7,43.7,30.11,East,79,0.0,0.0,100,0.01,,---,0.02,VWS V14.01,2013-01-06 11:21:00,
2013-01-06 03:28:00,43.7,43.7,30.11,ENE,78,0.0,0.0,100,0.01,,---,0.02,VWS V14.01,2013-01-06 11:28:00,
2013-01-06 03:41:00,43.7,43.7,30.11,ENE,78,0.0,0.0,100,0.00,,---,0.02,VWS V14.01,2013-01-06 11:41:00,
2013-01-06 03:51:00,43.8,43.8,30.11,East,79,0.0,0.0,100,0.00,,---,0.02,VWS V14.01,2013-01-06 11:51:00,
2013-01-06 03:58:00,43.7,43.7,30.11,ENE,78,0.0,0.0,100,0.00,,---,0.02,VWS V14.01,2013-01-06 11:58:00,
2013-01-06 04:11:00,43.7,43.7,30.11,ENE,78,0.0,0.0,100,0.00,,---,0.02,VWS V14.01,2013-01-06 12:11:00,
2013-01-06 04:21:00,43.7,43.7,30.11,ENE,78,0.0,0.0,100,0.01,,---,0.03,VWS V14.01,2013-01-06 12:21:00,
2013-01-06 04:28:00,43.7,43.7,30.11,East,79,0.0,0.0,100,0.01,,---,0.03,VWS V14.01,2013-01-06 12:28:00,
2013-01-06 04:41:00,43.7,43.7,30.11,ENE,77,0.0,0.0,100,0.02,,---,0.04,VWS V14.01,2013-01-06 12:41:00,
2013-01-06 04:51:00,43.7,43.7,30.12,ENE,77,0.0,0.0,100,0.02,,---,0.04,VWS V14.01,2013-01-06 12:51:00,
2013-01-06 04:58:00,43.7,43.7,30.12,ENE,77,0.0,0.0,100,0.03,,---,0.05,VWS V14.01,2013-01-06 12:58:00,
2013-01-06 05:11:00,43.7,43.7,30.12,ENE,77,0.0,0.0,100,0.03,,---,0.05,VWS V14.01,2013-01-06 13:11:00,
2013-01-06 05:21:00,43.6,43.6,30.12,ENE,77,0.0,0.0,100,0.03,,---,0.05,VWS V14.01,2013-01-06 13:21:00,
2013-01-06 05:28:00,43.6,43.6,30.11,ENE,77,0.0,0.0,100,0.02,,---,0.05,VWS V14.01,2013-01-06 13:28:00,
2013-01-06 05:41:00,43.5,43.5,30.12,ENE,77,0.0,0.0,100,0.02,,---,0.05,VWS V14.01,2013-01-06 13:41:00,
2013-01-06 05:51:00,43.5,43.5,30.12,ENE,77,0.0,0.0,100,0.01,,---,0.05,VWS V14.01,2013-01-06 13:51:00,
2013-01-06 05:58:00,43.5,43.5,30.13,ENE,77,0.0,0.0,100,0.01,,---,0.05,VWS V14.01,2013-01-06 13:58:00,
2013-01-06 06:11:00,43.4,43.4,30.13,ENE,77,0.0,0.0,100,0.00,,---,0.05,VWS V14.01,2013-01-06 14:11:00,
2013-01-06 06:21:00,43.4,43.4,30.13,ENE,77,0.0,0.0,100,0.00,,---,0.05,VWS V14.01,2013-01-06 14:21:00,
2013-01-06 06:28:00,43.4,43.4,30.12,ENE,77,0.0,0.0,100,0.00,,---,0.05,VWS V14.01,2013-01-06 14:28:00,
2013-01-06 06:41:00,43.3,43.3,30.12,ENE,77,0.0,0.0,100,0.00,,---,0.05,VWS V14.01,2013-01-06 14:41:00,
2013-01-06 06:51:00,43.2,43.2,30.12,ENE,77,0.0,0.0,100,0.00,,---,0.05,VWS V14.01,2013-01-06 14:51:00,
2013-01-06 06:58:00,43.1,43.1,30.12,ENE,77,0.0,0.0,100,0.00,,---,0.05,VWS V14.01,2013-01-06 14:58:00,
2013-01-06 07:11:00,42.8,42.8,30.13,ENE,77,0.0,0.0,100,0.00,,---,0.05,VWS V14.01,2013-01-06 15:11:00,
2013-01-06 07:21:00,42.5,42.5,30.13,ENE,77,0.0,0.0,100,0.00,,---,0.05,VWS V14.01,2013-01-06 15:21:00,
2013-01-06 07:28:00,42.4,42.4,30.13,ENE,77,0.0,0.0,100,0.00,,---,0.05,VWS V14.01,2013-01-06 15:28:00,
2013-01-06 07:41:00,42.3,42.3,30.14,ENE,77,0.0,0.0,100,0.00,,---,0.05,VWS V14.01,2013-01-06 15:41:00,
2013-01-06 07:51:00,42.3,42.3,30.14,ENE,77,0.0,0.0,100,0.00,,---,0.05,VWS V14.01,2013-01-06 15:51:00,
2013-01-06 07:58:00,42.2,42.2,30.15,ENE,77,0.0,0.0,100,0.00,,---,0.05,VWS V14.01,2013-01-06 15:58:00,
2013-01-06 08:11:00,42.2,42.2,30.15,ENE,77,0.0,0.0,100,0.00,,---,0.05,VWS V14.01,2013-01-06 16:11:00,
2013-01-06 08:21:00,42.2,42.2,30.16,ENE,77,0.0,0.0,100,0.00,,---,0.05,VWS V14.01,2013-01-06 16:21:00,
2013-01-06 08:28:00,42.1,42.1,30.16,ENE,77,0.0,0.0,100,0.00,,---,0.05,VWS V14.01,2013-01-06 16:28:00,
2013-01-06 08:41:00,42.2,42.2,30.17,ENE,77,0.0,0.0,100,0.00,,---,0.05,VWS V14.01,2013-01-06 16:41:00,
2013-01-06 08:51:00,42.1,42.1,30.17,NNE,27,0.0,1.0,100,0.00,,---,0.05,VWS V14.01,2013-01-06 16:51:00,
2013-01-06 08:58:00,42.3,42.3,30.18,NNE,27,0.0,0.0,100,0.00,,---,0.05,VWS V14.01,2013-01-06 16:58:00,
2013-01-06 09:11:00,42.4,42.4,30.18,NNE,26,0.0,0.0,100,0.00,,---,0.05,VWS V14.01,2013-01-06 17:11:00,
2013-01-06 09:21:00,42.5,42.5,30.18,NNE,27,0.0,0.0,100,0.00,,---,0.05,VWS V14.01,2013-01-06 17:21:00,
2013-01-06 09:28:00,42.6,42.6,30.19,NNE,27,0.0,0.0,100,0.00,,---,0.05,VWS V14.01,2013-01-06 17:28:00,
2013-01-06 09:41:00,42.6,42.6,30.19,NNE,27,0.0,0.0,100,0.00,,---,0.05,VWS V14.01,2013-01-06 17:41:00,
2013-01-06 09:51:00,42.9,42.9,30.19,NNE,26,0.0,0.0,100,0.00,,---,0.05,VWS V14.01,2013-01-06 17:51:00,
2013-01-06 09:58:00,43.1,43.1,30.20,NNE,27,0.0,0.0,100,0.00,,---,0.05,VWS V14.01,2013-01-06 17:58:00,
2013-01-06 10:11:00,43.5,43.5,30.19,NW,326,0.0,0.0,100,0.00,,---,0.05,VWS V14.01,2013-01-06 18:11:00,
2013-01-06 10:21:00,43.9,43.9,30.19,NW,326,0.0,0.0,100,0.00,,---,0.05,VWS V14.01,2013-01-06 18:21:00,
2013-01-06 10:28:00,44.2,44.2,30.19,NW,326,0.0,0.0,100,0.00,,---,0.05,VWS V14.01,2013-01-06 18:28:00,
2013-01-06 10:41:00,44.4,44.4,30.18,NW,326,0.0,1.0,100,0.00,,---,0.05,VWS V14.01,2013-01-06 18:41:00,
2013-01-06 10:51:00,44.8,44.8,30.18,NW,322,0.0,0.0,100,0.00,,---,0.05,VWS V14.01,2013-01-06 18:51:00,
2013-01-06 10:58:00,44.9,44.9,30.18,NW,322,0.0,0.0,100,0.00,,---,0.05,VWS V14.01,2013-01-06 18:58:00,
2013-01-06 11:11:00,45.2,45.2,30.17,NW,322,0.0,0.0,100,0.00,,---,0.05,VWS V14.01,2013-01-06 19:11:00,
2013-01-06 11:21:00,45.3,45.3,30.17,NW,322,0.0,0.0,100,0.00,,---,0.05,VWS V14.01,2013-01-06 19:21:00,
2013-01-06 11:28:00,45.4,45.4,30.17,West,280,0.0,1.0,100,0.00,,---,0.05,VWS V14.01,2013-01-06 19:28:00,
2013-01-06 11:51:00,46.2,46.2,30.16,West,281,0.0,0.0,100,0.00,,---,0.05,VWS V14.01,2013-01-06 19:51:00,
2013-01-06 11:58:00,46.5,46.2,30.16,WSW,245,0.0,1.0,99,0.00,,---,0.05,VWS V14.01,2013-01-06 19:58:00,
2013-01-06 12:11:00,46.9,46.9,30.16,SSW,202,0.0,1.0,100,0.00,,---,0.05,VWS V14.01,2013-01-06 20:11:00,
2013-01-06 12:13:00,46.9,46.9,30.16,SSW,202,0.0,0.0,100,0.00,,---,0.05,VWS V14.01,2013-01-06 20:13:00,
2013-01-06 12:21:00,47.1,47.1,30.15,South,188,0.0,1.0,100,0.00,,---,0.05,VWS V14.01,2013-01-06 20:21:00,
2013-01-06 12:28:00,47.3,47.3,30.15,South,188,0.0,1.0,100,0.00,,---,0.05,VWS V14.01,2013-01-06 20:28:00,
2013-01-06 12:41:00,47.9,47.6,30.15,South,188,0.0,0.0,99,0.00,,---,0.05,VWS V14.01,2013-01-06 20:41:00,
2013-01-06 12:43:00,48.0,47.7,30.15,South,188,0.0,0.0,99,0.00,,---,0.05,VWS V14.01,2013-01-06 20:43:00,
2013-01-06 12:58:00,48.4,47.8,30.14,South,188,0.0,1.0,98,0.00,,---,0.05,VWS V14.01,2013-01-06 20:58:00,
2013-01-06 13:01:00,48.5,48.0,30.14,South,188,0.0,1.0,98,0.00,,---,0.05,VWS V14.01,2013-01-06 21:01:00,
2013-01-06 13:11:00,48.3,47.5,30.14,South,188,0.0,1.0,97,0.00,,---,0.05,VWS V14.01,2013-01-06 21:11:00,
2013-01-06 13:21:00,48.1,47.3,30.14,South,188,0.0,1.0,97,0.00,,---,0.05,VWS V14.01,2013-01-06 21:21:00,
2013-01-06 13:28:00,48.2,47.1,30.14,South,188,0.0,0.0,96,0.00,,---,0.05,VWS V14.01,2013-01-06 21:28:00,
2013-01-06 13:41:00,48.9,47.5,30.14,South,188,0.0,0.0,95,0.00,,---,0.05,VWS V14.01,2013-01-06 21:41:00,
2013-01-06 13:51:00,49.4,48.3,30.13,South,188,0.0,0.0,96,0.00,,---,0.05,VWS V14.01,2013-01-06 21:51:00,
2013-01-06 13:58:00,49.5,48.4,30.14,South,188,0.0,0.0,96,0.00,,---,0.05,VWS V14.01,2013-01-06 21:58:00,
2013-01-06 14:11:00,49.6,48.2,30.14,South,188,0.0,0.0,95,0.00,,---,0.05,VWS V14.01,2013-01-06 22:11:00,
2013-01-06 14:21:00,49.4,48.0,30.14,South,188,1.0,1.0,95,0.00,,---,0.05,VWS V14.01,2013-01-06 22:21:00,
2013-01-06 14:28:00,49.1,47.7,30.14,South,188,0.0,1.0,95,0.00,,---,0.05,VWS V14.01,2013-01-06 22:28:00,
2013-01-06 14:41:00,48.5,47.4,30.14,South,187,1.0,1.0,96,0.00,,---,0.05,VWS V14.01,2013-01-06 22:41:00,
2013-01-06 14:51:00,48.3,47.2,30.14,SSE,165,1.0,2.0,96,0.00,,---,0.05,VWS V14.01,2013-01-06 22:51:00,
2013-01-06 14:58:00,48.2,47.1,30.14,SSE,165,0.0,1.0,96,0.00,,---,0.05,VWS V14.01,2013-01-06 22:58:00,
2013-01-06 15:11:00,47.9,46.8,30.14,SSE,165,1.0,1.0,96,0.00,,---,0.05,VWS V14.01,2013-01-06 23:11:00,
2013-01-06 15:21:00,47.9,46.8,30.14,SSE,165,0.0,1.0,96,0.00,,---,0.05,VWS V14.01,2013-01-06 23:21:00,
2013-01-06 15:28:00,47.8,46.7,30.14,SSE,165,1.0,1.0,96,0.00,,---,0.05,VWS V14.01,2013-01-06 23:28:00,
2013-01-06 15:41:00,47.7,46.9,30.14,SSE,165,0.0,1.0,97,0.00,,---,0.05,VWS V14.01,2013-01-06 23:41:00,
2013-01-06 15:51:00,47.7,46.9,30.14,SSE,165,0.0,1.0,97,0.00,,---,0.05,VWS V14.01,2013-01-06 23:51:00,
2013-01-06 15:58:00,47.7,46.6,30.14,SSE,165,0.0,1.0,96,0.00,,---,0.05,VWS V14.01,2013-01-06 23:58:00,
2013-01-06 16:11:00,47.7,46.9,30.15,SSE,165,0.0,0.0,97,0.00,,---,0.05,VWS V14.01,2013-01-07 00:11:00,
2013-01-06 16:21:00,47.7,46.9,30.15,SSE,165,0.0,1.0,97,0.00,,---,0.05,VWS V14.01,2013-01-07 00:21:00,
2013-01-06 16:28:00,47.7,46.9,30.15,SSE,165,0.0,0.0,97,0.00,,---,0.05,VWS V14.01,2013-01-07 00:28:00,
2013-01-06 16:41:00,47.5,46.7,30.14,SSE,165,0.0,0.0,97,0.00,,---,0.05,VWS V14.01,2013-01-07 00:41:00,
2013-01-06 16:51:00,47.4,46.6,30.14,SSE,165,0.0,0.0,97,0.00,,---,0.05,VWS V14.01,2013-01-07 00:51:00,
2013-01-06 16:58:00,47.2,46.7,30.14,SSE,165,0.0,0.0,98,0.00,,---,0.05,VWS V14.01,2013-01-07 00:58:00,
2013-01-06 17:11:00,46.8,46.0,30.14,SSE,165,0.0,0.0,97,0.00,,---,0.05,VWS V14.01,2013-01-07 01:11:00,
2013-01-06 17:21:00,46.5,46.0,30.14,SSE,165,0.0,0.0,98,0.00,,---,0.05,VWS V14.01,2013-01-07 01:21:00,
2013-01-06 17:28:00,46.4,45.8,30.14,SSE,165,0.0,0.0,98,0.00,,---,0.05,VWS V14.01,2013-01-07 01:28:00,
2013-01-06 17:41:00,46.0,45.5,30.14,SSE,165,0.0,0.0,98,0.00,,---,0.05,VWS V14.01,2013-01-07 01:41:00,
2013-01-06 17:51:00,45.7,45.2,30.14,SSE,165,0.0,0.0,98,0.00,,---,0.05,VWS V14.01,2013-01-07 01:51:00,
2013-01-06 17:58:00,45.6,45.1,30.14,SSE,165,0.0,0.0,98,0.00,,---,0.05,VWS V14.01,2013-01-07 01:58:00,
2013-01-06 18:11:00,45.3,45.0,30.15,SSE,165,0.0,0.0,99,0.00,,---,0.05,VWS V14.01,2013-01-07 02:11:00,
2013-01-06 18:21:00,45.0,44.7,30.15,SSE,165,0.0,0.0,99,0.00,,---,0.05,VWS V14.01,2013-01-07 02:21:00,
2013-01-06 18:28:00,44.8,44.5,30.15,SSE,167,0.0,0.0,99,0.00,,---,0.05,VWS V14.01,2013-01-07 02:28:00,
2013-01-06 18:41:00,44.5,44.2,30.16,SSE,167,0.0,0.0,99,0.00,,---,0.05,VWS V14.01,2013-01-07 02:41:00,
2013-01-06 18:51:00,44.1,43.8,30.17,SSE,165,0.0,0.0,99,0.00,,---,0.05,VWS V14.01,2013-01-07 02:51:00,
2013-01-06 18:58:00,44.0,43.7,30.17,SSE,165,0.0,0.0,99,0.00,,---,0.05,VWS V14.01,2013-01-07 02:58:00,
2013-01-06 19:11:00,43.8,43.5,30.17,SSE,165,0.0,0.0,99,0.00,,---,0.05,VWS V14.01,2013-01-07 03:11:00,
2013-01-06 19:21:00,43.5,43.2,30.17,SSE,167,0.0,0.0,99,0.00,,---,0.05,VWS V14.01,2013-01-07 03:21:00,
2013-01-06 19:28:00,43.3,43.0,30.17,SSE,167,0.0,0.0,99,0.00,,---,0.05,VWS V14.01,2013-01-07 03:28:00,
2013-01-06 19:41:00,43.0,42.7,30.17,SSE,167,0.0,0.0,99,0.00,,---,0.05,VWS V14.01,2013-01-07 03:41:00,
2013-01-06 19:51:00,42.8,42.5,30.17,SSE,167,0.0,0.0,99,0.00,,---,0.05,VWS V14.01,2013-01-07 03:51:00,
2013-01-06 19:58:00,42.5,42.2,30.17,SSE,165,0.0,0.0,99,0.00,,---,0.05,VWS V14.01,2013-01-07 03:58:00,
2013-01-06 20:11:00,42.0,41.7,30.17,SSE,167,0.0,0.0,99,0.00,,---,0.05,VWS V14.01,2013-01-07 04:11:00,
2013-01-06 20:21:00,41.9,41.9,30.17,SSE,167,0.0,0.0,100,0.00,,---,0.05,VWS V14.01,2013-01-07 04:21:00,
2013-01-06 20:28:00,41.8,41.8,30.18,SSE,167,0.0,0.0,100,0.00,,---,0.05,VWS V14.01,2013-01-07 04:28:00,
2013-01-06 20:41:00,41.6,41.6,30.19,WSW,245,0.0,0.0,100,0.00,,---,0.05,VWS V14.01,2013-01-07 04:41:00,
2013-01-06 20:51:00,41.5,41.5,30.20,WSW,245,0.0,0.0,100,0.00,,---,0.05,VWS V14.01,2013-01-07 04:51:00,
2013-01-06 20:58:00,41.6,41.6,30.19,WSW,245,0.0,0.0,100,0.00,,---,0.05,VWS V14.01,2013-01-07 04:58:00,
2013-01-06 21:01:00,41.6,41.6,30.19,NW,311,0.0,0.0,100,0.00,,---,0.05,VWS V14.01,2013-01-07 05:01:00,
2013-01-06 21:11:00,41.4,41.4,30.18,NNW,345,0.0,0.0,100,0.00,,---,0.05,VWS V14.01,2013-01-07 05:11:00,
2013-01-06 21:21:00,41.2,41.2,30.18,WNW,295,0.0,0.0,100,0.00,,---,0.05,VWS V14.01,2013-01-07 05:21:00,
2013-01-06 21:29:00,41.0,41.0,30.18,WNW,296,0.0,0.0,100,0.00,,---,0.05,VWS V14.01,2013-01-07 05:29:00,
2013-01-06 21:41:00,40.9,40.9,30.18,WNW,295,0.0,0.0,100,0.00,,---,0.05,VWS V14.01,2013-01-07 05:41:00,
2013-01-06 21:51:00,40.6,40.6,30.18,WNW,297,0.0,0.0,100,0.00,,---,0.05,VWS V14.01,2013-01-07 05:51:00,
2013-01-06 21:59:00,40.6,40.6,30.18,WNW,295,0.0,0.0,100,0.00,,---,0.05,VWS V14.01,2013-01-07 05:59:00,
2013-01-06 22:11:00,40.7,40.7,30.18,WNW,295,0.0,0.0,100,0.00,,---,0.05,VWS V14.01,2013-01-07 06:11:00,
2013-01-06 22:21:00,40.7,40.7,30.18,WNW,295,0.0,0.0,100,0.00,,---,0.05,VWS V14.01,2013-01-07 06:21:00,
2013-01-06 22:29:00,40.6,40.6,30.18,NNW,336,0.0,0.0,100,0.00,,---,0.05,VWS V14.01,2013-01-07 06:29:00,
2013-01-06 22:41:00,40.3,40.3,30.19,NNW,336,0.0,0.0,100,0.00,,---,0.05,VWS V14.01,2013-01-07 06:41:00,
2013-01-06 22:51:00,40.1,40.1,30.19,NNW,336,0.0,0.0,100,0.00,,---,0.05,VWS V14.01,2013-01-07 06:51:00,
2013-01-06 22:59:00,40.0,40.0,30.19,NNW,336,0.0,0.0,100,0.00,,---,0.05,VWS V14.01,2013-01-07 06:59:00,
2013-01-06 23:11:00,39.9,39.9,30.19,NNW,336,0.0,0.0,100,0.00,,---,0.05,VWS V14.01,2013-01-07 07:11:00,
2013-01-06 23:21:00,39.7,39.7,30.19,NNW,336,0.0,0.0,100,0.00,,---,0.05,VWS V14.01,2013-01-07 07:21:00,
2013-01-06 23:29:00,39.7,39.7,30.19,NNW,336,0.0,0.0,100,0.00,,---,0.05,VWS V14.01,2013-01-07 07:29:00,
2013-01-06 23:41:00,39.6,39.6,30.19,NNW,337,0.0,1.0,100,0.00,,---,0.05,VWS V14.01,2013-01-07 07:41:00,
2013-01-06 23:51:00,39.5,39.5,30.18,NW,312,0.0,0.0,100,0.00,,---,0.05,VWS V14.01,2013-01-07 07:51:00,
2013-01-06 23:59:00,39.4,39.4,30.18,NW,312,0.0,0.0,100,0.00,,---,0.05,VWS V14.01,2013-01-07 07:59:00,